createdAt,value
2023-04-17T00:00:28.722Z,28.70
2023-04-17T00:02:55.773Z,25.98
2023-04-17T00:05:23.471Z,26.77
2023-04-17T00:07:50.251Z,31.80
2023-04-17T00:10:17.085Z,29.55
2023-04-17T00:12:43.872Z,29.80
2023-04-17T00:15:11.130Z,26.42
2023-04-17T00:17:37.948Z,27.13
2023-04-17T00:20:10.639Z,28.80
2023-04-17T00:22:38.468Z,25.25
2023-04-17T00:25:05.816Z,28.88
2023-04-17T00:27:32.811Z,26.98
2023-04-17T00:29:59.543Z,26.50
2023-04-17T00:32:26.414Z,29.30
2023-04-17T00:34:55.609Z,26.45
2023-04-17T00:37:22.725Z,26.13
2023-04-17T00:39:49.502Z,28.02
2023-04-17T00:42:16.514Z,28.98
2023-04-17T00:44:43.349Z,27.20
2023-04-17T00:47:10.285Z,30.08
2023-04-17T00:49:37.124Z,29.80
2023-04-17T00:52:04.330Z,30.92
2023-04-17T00:54:32.035Z,28.80
2023-04-17T00:57:00.021Z,28.48
2023-04-17T00:59:28.721Z,29.95
2023-04-17T01:01:55.735Z,27.95
2023-04-17T01:04:22.567Z,29.70
2023-04-17T01:06:49.512Z,31.05
2023-04-17T01:09:17.021Z,30.58
2023-04-17T01:11:43.747Z,27.70
2023-04-17T01:14:10.594Z,27.48
2023-04-17T01:16:39.517Z,29.50
2023-04-17T01:19:07.396Z,28.42
2023-04-17T01:21:34.209Z,27.65
2023-04-17T01:24:02.985Z,29.00
2023-04-17T01:26:31.643Z,26.30
2023-04-17T01:28:59.876Z,28.02
2023-04-17T01:31:31.017Z,33.03
2023-04-17T01:33:58.071Z,28.30
2023-04-17T01:36:24.894Z,24.42
2023-04-17T01:38:51.615Z,27.75
2023-04-17T01:41:18.593Z,29.60
2023-04-17T01:43:47.760Z,27.35
2023-04-17T01:46:14.628Z,28.15
2023-04-17T01:48:41.677Z,29.13
2023-04-17T01:51:08.581Z,31.38
2023-04-17T01:53:40.345Z,28.05
2023-04-17T01:56:07.945Z,28.92
2023-04-17T01:58:34.916Z,30.70
2023-04-17T02:01:01.766Z,28.52
2023-04-17T02:03:28.651Z,30.55
2023-04-17T02:05:55.845Z,28.85
2023-04-17T02:08:22.833Z,32.00
2023-04-17T02:10:50.026Z,30.33
2023-04-17T02:13:16.791Z,31.45
2023-04-17T02:15:43.829Z,33.15
2023-04-17T02:18:10.874Z,31.63
2023-04-17T02:20:38.183Z,31.10
2023-04-17T02:23:06.312Z,32.90
2023-04-17T02:25:34.309Z,31.27
2023-04-17T02:28:01.381Z,33.30
2023-04-17T02:30:28.444Z,35.03
2023-04-17T02:32:56.386Z,37.45
2023-04-17T02:35:29.406Z,34.80
2023-04-17T02:37:56.289Z,34.83
2023-04-17T02:40:23.212Z,40.45
2023-04-17T02:42:50.027Z,42.55
2023-04-17T02:45:16.758Z,37.72
2023-04-17T02:47:43.670Z,34.67
2023-04-17T02:50:11.377Z,36.42
2023-04-17T02:52:38.278Z,36.97
2023-04-17T02:55:05.920Z,34.28
2023-04-17T02:57:32.968Z,34.70
2023-04-17T03:00:04.560Z,36.40
2023-04-17T03:02:31.448Z,36.38
2023-04-17T03:04:58.357Z,35.35
2023-04-17T03:07:27.681Z,32.60
2023-04-17T03:09:54.420Z,33.85
2023-04-17T03:12:21.195Z,31.73
2023-04-17T03:14:47.916Z,33.30
2023-04-17T03:17:15.807Z,32.30
2023-04-17T03:19:42.597Z,32.58
2023-04-17T03:22:10.864Z,33.95
2023-04-17T03:24:39.514Z,34.65
2023-04-17T03:27:06.264Z,34.75
2023-04-17T03:29:33.034Z,36.50
2023-04-17T03:31:59.886Z,35.83
2023-04-17T03:34:27.098Z,38.53
2023-04-17T03:36:53.843Z,35.42
2023-04-17T03:39:20.920Z,37.20
2023-04-17T03:41:47.772Z,35.65
2023-04-17T03:44:14.542Z,37.20
2023-04-17T03:46:41.398Z,34.92
2023-04-17T03:49:08.120Z,38.63
2023-04-17T03:51:34.890Z,35.38
2023-04-17T03:54:01.661Z,39.05
2023-04-17T03:56:28.465Z,36.80
2023-04-17T03:58:55.280Z,32.33
2023-04-17T04:01:22.578Z,33.75
2023-04-17T04:03:49.642Z,33.47
2023-04-17T04:06:20.472Z,31.48
2023-04-17T04:08:47.267Z,35.65
2023-04-17T04:11:14.198Z,34.00
2023-04-17T04:13:41.225Z,32.80
2023-04-17T04:16:08.514Z,33.95
2023-04-17T04:18:36.634Z,34.42
2023-04-17T04:21:03.652Z,35.10
2023-04-17T04:23:30.830Z,35.85
2023-04-17T04:25:58.238Z,32.22
2023-04-17T04:28:25.008Z,28.88
2023-04-17T04:30:53.987Z,27.75
2023-04-17T04:33:21.497Z,27.95
2023-04-17T04:35:48.945Z,27.90
2023-04-17T04:38:17.390Z,25.50
2023-04-17T04:40:50.306Z,25.05
2023-04-17T04:43:17.073Z,22.55
2023-04-17T04:45:44.525Z,23.80
2023-04-17T04:48:11.293Z,23.42
2023-04-17T04:50:38.117Z,17.48
2023-04-17T04:53:04.994Z,17.05
2023-04-17T04:55:31.780Z,17.77
2023-04-17T04:57:59.018Z,20.15
2023-04-17T05:00:26.641Z,17.02
2023-04-17T05:02:53.527Z,16.02
2023-04-17T05:05:20.688Z,16.05
2023-04-17T05:07:47.706Z,16.40
2023-04-17T05:10:14.455Z,15.75
2023-04-17T05:12:41.891Z,15.20
2023-04-17T05:15:09.210Z,14.05
2023-04-17T05:17:36.667Z,12.40
2023-04-17T05:20:07.824Z,13.95
2023-04-17T05:22:34.976Z,14.45
2023-04-17T05:25:01.942Z,12.88
2023-04-17T05:27:28.638Z,14.10
2023-04-17T05:29:55.569Z,13.77
2023-04-17T05:32:22.870Z,16.65
2023-04-17T05:34:50.465Z,16.98
2023-04-17T05:37:17.552Z,14.70
2023-04-17T05:39:44.285Z,16.52
2023-04-17T05:42:11.105Z,15.82
2023-04-17T05:44:37.858Z,14.70
2023-04-17T05:47:04.587Z,13.73
2023-04-17T05:49:31.307Z,16.80
2023-04-17T05:51:58.126Z,15.38
2023-04-17T05:54:24.987Z,22.67
2023-04-17T05:56:52.162Z,19.45
2023-04-17T05:59:19.005Z,16.17
2023-04-17T06:01:45.770Z,13.57
2023-04-17T06:04:13.320Z,16.02
2023-04-17T06:06:40.417Z,15.77
2023-04-17T06:09:09.096Z,15.27
2023-04-17T06:11:35.842Z,14.88
2023-04-17T06:14:02.656Z,14.30
2023-04-17T06:16:29.802Z,16.98
2023-04-17T06:18:56.645Z,16.38
2023-04-17T06:21:23.488Z,19.23
2023-04-17T06:23:50.223Z,19.08
2023-04-17T06:26:17.112Z,17.40
2023-04-17T06:28:43.893Z,15.50
2023-04-17T06:31:11.007Z,14.93
2023-04-17T06:33:37.780Z,14.45
2023-04-17T06:36:04.731Z,19.05
2023-04-17T06:38:31.439Z,19.10
2023-04-17T06:40:58.191Z,14.18
2023-04-17T06:43:25.036Z,14.85
2023-04-17T06:45:51.900Z,13.68
2023-04-17T06:48:18.613Z,14.65
2023-04-17T06:50:45.503Z,14.63
2023-04-17T06:53:12.254Z,18.48
2023-04-17T06:55:39.062Z,14.45
2023-04-17T06:58:08.481Z,14.95
2023-04-17T07:00:35.542Z,13.43
2023-04-17T07:03:02.943Z,12.13
2023-04-17T07:05:29.878Z,10.93
2023-04-17T07:07:56.766Z,14.55
2023-04-17T07:10:23.689Z,11.75
2023-04-17T07:12:50.798Z,12.32
2023-04-17T07:15:17.847Z,13.77
2023-04-17T07:17:44.733Z,12.20
2023-04-17T07:20:12.071Z,12.18
2023-04-17T07:22:39.379Z,11.70
2023-04-17T07:25:07.225Z,11.75
2023-04-17T07:27:33.969Z,11.85
2023-04-17T07:30:00.865Z,11.18
2023-04-17T07:32:30.661Z,11.70
2023-04-17T07:34:57.829Z,11.82
2023-04-17T07:37:24.595Z,13.85
2023-04-17T07:39:51.441Z,12.38
2023-04-17T07:42:18.303Z,13.43
2023-04-17T07:44:46.042Z,16.90
2023-04-17T07:47:13.019Z,13.10
2023-04-17T07:49:40.759Z,14.52
2023-04-17T07:52:07.514Z,10.48
2023-04-17T07:54:34.515Z,11.75
2023-04-17T07:57:03.155Z,13.13
2023-04-17T07:59:33.213Z,11.45
2023-04-17T08:02:00.207Z,13.98
2023-04-17T08:04:27.221Z,12.00
2023-04-17T08:06:54.261Z,15.18
2023-04-17T08:09:22.421Z,11.45
2023-04-17T08:11:57.172Z,13.68
2023-04-17T08:14:25.361Z,11.80
2023-04-17T08:16:52.505Z,13.07
2023-04-17T08:19:19.456Z,10.77
2023-04-17T08:21:50.117Z,11.55
2023-04-17T08:24:19.737Z,13.45
2023-04-17T08:26:47.620Z,11.30
2023-04-17T08:29:14.665Z,14.75
2023-04-17T08:31:41.680Z,13.98
2023-04-17T08:34:14.303Z,10.85
2023-04-17T08:36:42.030Z,22.17
2023-04-17T08:39:10.463Z,11.77
2023-04-17T08:41:49.557Z,14.48
2023-04-17T08:44:21.610Z,10.90
2023-04-17T08:46:49.808Z,10.98
2023-04-17T08:49:16.675Z,15.10
2023-04-17T08:51:43.498Z,11.13
2023-04-17T08:54:10.657Z,10.73
2023-04-17T08:56:37.522Z,9.77
2023-04-17T08:59:04.821Z,11.40
2023-04-17T09:01:31.755Z,13.30
2023-04-17T09:03:58.797Z,10.30
2023-04-17T09:06:25.771Z,12.70
2023-04-17T09:09:01.973Z,10.25
2023-04-17T09:11:28.810Z,9.20
2023-04-17T09:13:55.676Z,10.50
2023-04-17T09:16:24.835Z,8.75
2023-04-17T09:18:51.842Z,13.73
2023-04-17T09:21:19.269Z,10.30
2023-04-17T09:23:47.211Z,9.30
2023-04-17T09:26:15.909Z,10.10
2023-04-17T09:29:02.118Z,9.95
2023-04-17T09:31:30.755Z,9.57
2023-04-17T09:34:06.183Z,9.63
2023-04-17T09:36:34.917Z,9.75
2023-04-17T09:39:04.699Z,9.40
2023-04-17T09:41:33.585Z,9.90
2023-04-17T09:44:02.234Z,9.23
2023-04-17T09:46:38.460Z,9.95
2023-04-17T09:49:19.279Z,10.35
2023-04-17T09:51:46.781Z,8.48
2023-04-17T09:54:16.168Z,9.32
2023-04-17T09:56:43.788Z,6.85
2023-04-17T09:59:11.273Z,9.45
2023-04-17T10:01:38.604Z,8.23
2023-04-17T10:04:06.471Z,6.80
2023-04-17T10:06:34.761Z,8.85
2023-04-17T10:09:04.099Z,7.82
2023-04-17T10:11:36.744Z,7.30
2023-04-17T10:14:24.782Z,8.88
2023-04-17T10:16:51.844Z,9.23
2023-04-17T10:19:35.957Z,10.55
2023-04-17T10:22:20.830Z,10.63
2023-04-17T10:25:13.402Z,13.40
2023-04-17T10:27:40.518Z,9.13
2023-04-17T10:30:16.391Z,9.23
2023-04-17T10:32:46.153Z,10.07
2023-04-17T10:35:15.906Z,8.38
2023-04-17T10:37:48.937Z,7.20
2023-04-17T10:40:23.327Z,9.45
2023-04-17T10:43:12.019Z,6.43
2023-04-17T10:46:11.397Z,6.25
2023-04-17T10:48:54.979Z,7.78
2023-04-17T10:51:21.735Z,7.50
2023-04-17T10:54:10.584Z,7.65
2023-04-17T10:56:48.968Z,6.00
2023-04-17T10:59:21.033Z,5.95
2023-04-17T11:01:47.807Z,6.35
2023-04-17T11:04:22.701Z,5.90
2023-04-17T11:06:51.206Z,5.68
2023-04-17T11:09:20.963Z,5.05
2023-04-17T11:11:47.769Z,5.10
2023-04-17T11:14:19.766Z,6.53
2023-04-17T11:16:48.520Z,5.43
2023-04-17T11:19:23.376Z,4.25
2023-04-17T11:21:54.480Z,5.00
2023-04-17T11:24:25.172Z,3.42
2023-04-17T11:26:52.073Z,3.38
2023-04-17T11:29:20.984Z,3.70
2023-04-17T11:31:49.309Z,3.95
2023-04-17T11:34:17.282Z,3.65
2023-04-17T11:36:57.623Z,6.82
2023-04-17T11:39:34.910Z,4.00
2023-04-17T11:42:05.480Z,2.97
2023-04-17T11:44:32.553Z,4.20
2023-04-17T11:46:59.781Z,3.65
2023-04-17T11:49:28.177Z,3.05
2023-04-17T11:51:58.693Z,3.22
2023-04-17T11:54:37.993Z,3.28
2023-04-17T11:57:07.988Z,3.00
2023-04-17T11:59:39.023Z,4.03
2023-04-17T12:02:07.987Z,3.08
2023-04-17T12:04:37.119Z,5.15
2023-04-17T12:07:05.831Z,3.35
2023-04-17T12:09:36.309Z,4.88
2023-04-17T12:12:07.638Z,3.10
2023-04-17T12:14:34.942Z,3.40
2023-04-17T12:17:01.754Z,3.03
2023-04-17T12:19:30.029Z,2.92
2023-04-17T12:21:57.645Z,4.72
2023-04-17T12:24:25.417Z,3.97
2023-04-17T12:26:52.726Z,2.97
2023-04-17T12:29:26.588Z,3.30
2023-04-17T12:32:03.877Z,4.35
2023-04-17T12:34:31.055Z,2.72
2023-04-17T12:36:57.842Z,3.08
2023-04-17T12:39:24.724Z,2.65
2023-04-17T12:41:51.572Z,2.95
2023-04-17T12:44:18.337Z,2.70
2023-04-17T12:46:45.141Z,2.90
2023-04-17T12:49:12.196Z,3.45
2023-04-17T12:51:39.235Z,3.10
2023-04-17T12:54:05.998Z,2.47
2023-04-17T12:56:32.956Z,1.75
2023-04-17T12:59:02.703Z,4.22
2023-04-17T13:01:30.130Z,2.00
2023-04-17T13:03:57.278Z,2.03
2023-04-17T13:06:24.405Z,2.72
2023-04-17T13:08:51.355Z,2.42
2023-04-17T13:11:18.182Z,2.38
2023-04-17T13:13:45.233Z,2.30
2023-04-17T13:16:12.149Z,2.45
2023-04-17T13:18:39.012Z,3.08
2023-04-17T13:21:06.006Z,3.58
2023-04-17T13:23:32.753Z,2.30
2023-04-17T13:25:59.819Z,2.20
2023-04-17T13:28:26.570Z,1.77
2023-04-17T13:30:53.413Z,2.88
2023-04-17T13:33:20.590Z,3.13
2023-04-17T13:35:47.671Z,2.22
2023-04-17T13:38:14.620Z,1.70
2023-04-17T13:40:41.541Z,2.00
2023-04-17T13:43:09.353Z,2.10
2023-04-17T13:45:36.338Z,4.32
2023-04-17T13:48:03.280Z,2.63
2023-04-17T13:50:30.066Z,2.63
2023-04-17T13:52:56.859Z,3.72
2023-04-17T13:55:24.223Z,3.15
2023-04-17T13:57:51.867Z,2.72
2023-04-17T14:00:19.095Z,2.88
2023-04-17T14:02:46.477Z,2.45
2023-04-17T14:05:13.561Z,3.50
2023-04-17T14:07:40.536Z,2.83
2023-04-17T14:10:08.239Z,3.47
2023-04-17T14:12:35.008Z,4.15
2023-04-17T14:15:01.904Z,3.97
2023-04-17T14:17:29.134Z,3.67
2023-04-17T14:19:56.135Z,4.78
2023-04-17T14:22:22.899Z,5.60
2023-04-17T14:24:49.632Z,5.72
2023-04-17T14:27:16.478Z,5.10
2023-04-17T14:29:43.458Z,5.05
2023-04-17T14:32:10.227Z,5.30
2023-04-17T14:34:37.041Z,7.60
2023-04-17T14:37:03.834Z,8.85
2023-04-17T14:39:31.635Z,10.23
2023-04-17T14:42:00.548Z,8.75
2023-04-17T14:44:28.769Z,7.88
2023-04-17T14:46:57.104Z,10.55
2023-04-17T14:49:24.416Z,9.60
2023-04-17T14:51:51.338Z,10.88
2023-04-17T14:54:18.060Z,11.95
2023-04-17T14:56:44.933Z,10.95
2023-04-17T14:59:12.358Z,11.15
2023-04-17T15:01:39.626Z,11.93
2023-04-17T15:04:06.883Z,11.48
2023-04-17T15:06:33.911Z,11.73
2023-04-17T15:09:00.778Z,12.85
2023-04-17T15:11:27.572Z,14.00
2023-04-17T15:13:54.939Z,13.43
2023-04-17T15:16:21.893Z,11.63
2023-04-17T15:18:48.920Z,12.43
2023-04-17T15:21:16.459Z,11.98
2023-04-17T15:23:43.476Z,16.75
2023-04-17T15:26:10.395Z,15.40
2023-04-17T15:28:37.240Z,12.38
2023-04-17T15:31:04.013Z,14.55
2023-04-17T15:33:31.388Z,14.45
2023-04-17T15:35:59.465Z,16.17
2023-04-17T15:38:27.316Z,13.77
2023-04-17T15:40:56.001Z,16.08
2023-04-17T15:43:23.498Z,14.43
2023-04-17T15:45:51.509Z,14.63
2023-04-17T15:48:18.388Z,13.05
2023-04-17T15:50:45.169Z,13.55
2023-04-17T15:53:13.224Z,14.80
2023-04-17T15:55:41.529Z,15.00
2023-04-17T15:58:08.489Z,14.32
2023-04-17T16:00:35.286Z,13.13
2023-04-17T16:03:02.274Z,14.40
2023-04-17T16:05:30.507Z,16.75
2023-04-17T16:07:57.546Z,12.48
2023-04-17T16:10:24.593Z,13.15
2023-04-17T16:12:51.622Z,14.70
2023-04-17T16:15:18.599Z,14.10
2023-04-17T16:17:46.156Z,14.13
2023-04-17T16:20:13.212Z,15.98
2023-04-17T16:22:40.522Z,14.10
2023-04-17T16:25:08.739Z,14.45
2023-04-17T16:27:37.868Z,13.00
2023-04-17T16:30:06.121Z,14.80
2023-04-17T16:32:33.169Z,13.63
2023-04-17T16:35:00.137Z,16.65
2023-04-17T16:37:27.146Z,13.82
2023-04-17T16:39:53.876Z,13.48
2023-04-17T16:42:20.668Z,13.95
2023-04-17T16:44:51.425Z,14.65
2023-04-17T16:47:18.317Z,15.85
2023-04-17T16:49:45.181Z,17.60
2023-04-17T16:52:11.972Z,13.88
2023-04-17T16:54:38.701Z,17.60
2023-04-17T16:57:06.180Z,16.00
2023-04-17T16:59:33.335Z,14.27
2023-04-17T17:02:02.456Z,20.83
2023-04-17T17:04:29.808Z,15.60
2023-04-17T17:06:56.805Z,17.05
2023-04-17T17:09:23.561Z,16.33
2023-04-17T17:11:50.490Z,16.25
2023-04-17T17:14:17.211Z,16.05
2023-04-17T17:16:44.043Z,16.50
2023-04-17T17:19:10.979Z,15.25
2023-04-17T17:21:38.306Z,17.67
2023-04-17T17:24:06.735Z,16.85
2023-04-17T17:26:33.539Z,20.95
2023-04-17T17:29:00.610Z,16.40
2023-04-17T17:31:27.672Z,17.88
2023-04-17T17:33:55.502Z,18.70
2023-04-17T17:36:22.394Z,17.92
2023-04-17T17:38:57.476Z,17.10
2023-04-17T17:41:25.304Z,21.92
2023-04-17T17:43:52.218Z,20.75
2023-04-17T17:46:21.814Z,17.17
2023-04-17T17:48:48.646Z,17.38
2023-04-17T17:51:15.448Z,19.55
2023-04-17T17:53:42.253Z,22.40
2023-04-17T17:56:08.977Z,18.15
2023-04-17T17:58:35.813Z,27.80
2023-04-17T18:01:03.123Z,21.35
2023-04-17T18:03:29.974Z,20.95
2023-04-17T18:05:56.897Z,19.33
2023-04-17T18:08:23.727Z,16.27
2023-04-17T18:10:50.515Z,19.88
2023-04-17T18:13:17.281Z,19.55
2023-04-17T18:15:44.289Z,21.30
2023-04-17T18:18:13.753Z,21.58
2023-04-17T18:20:40.765Z,20.15
2023-04-17T18:23:07.584Z,19.92
2023-04-17T18:25:36.127Z,20.30
2023-04-17T18:28:04.003Z,19.85
2023-04-17T18:30:31.267Z,22.30
2023-04-17T18:32:58.212Z,23.23
2023-04-17T18:35:25.102Z,21.20
2023-04-17T18:37:53.246Z,23.30
2023-04-17T18:40:20.112Z,21.77
2023-04-17T18:42:47.734Z,25.35
2023-04-17T18:45:16.236Z,23.58
2023-04-17T18:47:43.360Z,23.20
2023-04-17T18:50:11.368Z,20.15
2023-04-17T18:52:44.050Z,24.92
2023-04-17T18:55:14.032Z,26.83
2023-04-17T18:57:40.834Z,20.52
2023-04-17T19:00:08.860Z,22.30
2023-04-17T19:02:37.318Z,23.70
2023-04-17T19:05:04.760Z,20.75
2023-04-17T19:07:31.667Z,19.02
2023-04-17T19:09:58.475Z,24.15
2023-04-17T19:12:25.324Z,19.38
2023-04-17T19:14:52.178Z,22.65
2023-04-17T19:17:19.052Z,22.63
2023-04-17T19:19:45.933Z,20.10
2023-04-17T19:22:14.118Z,25.48
2023-04-17T19:24:42.871Z,23.98
2023-04-17T19:27:09.889Z,24.35
2023-04-17T19:29:37.345Z,24.10
2023-04-17T19:32:04.331Z,24.08
2023-04-17T19:34:34.203Z,23.60
2023-04-17T19:37:00.941Z,25.70
2023-04-17T19:39:28.109Z,21.17
2023-04-17T19:41:54.839Z,20.30
2023-04-17T19:44:21.621Z,19.38
2023-04-17T19:46:48.765Z,21.30
2023-04-17T19:49:15.881Z,19.88
2023-04-17T19:51:42.663Z,20.70
2023-04-17T19:54:12.196Z,23.20
2023-04-17T19:56:39.567Z,24.27
2023-04-17T19:59:06.418Z,22.52
2023-04-17T20:01:33.569Z,21.48
2023-04-17T20:04:00.486Z,19.55
2023-04-17T20:06:27.376Z,20.42
2023-04-17T20:08:56.601Z,23.85
2023-04-17T20:11:23.909Z,23.45
2023-04-17T20:13:51.986Z,20.05
2023-04-17T20:16:19.052Z,22.42
2023-04-17T20:18:46.011Z,20.60
2023-04-17T20:21:13.457Z,24.02
2023-04-17T20:23:41.369Z,19.63
2023-04-17T20:26:08.440Z,20.48
2023-04-17T20:28:35.286Z,25.05
2023-04-17T20:31:03.630Z,24.42
2023-04-17T20:33:30.604Z,22.83
2023-04-17T20:35:57.452Z,25.15
2023-04-17T20:38:24.191Z,25.63
2023-04-17T20:40:50.936Z,20.33
2023-04-17T20:43:17.995Z,23.17
2023-04-17T20:45:44.854Z,24.83
2023-04-17T20:48:11.765Z,25.15
2023-04-17T20:50:38.576Z,27.60
2023-04-17T20:53:05.517Z,24.40
2023-04-17T20:55:32.331Z,25.20
2023-04-17T20:57:59.110Z,26.08
2023-04-17T21:00:26.401Z,21.83
2023-04-17T21:02:53.153Z,24.70
2023-04-17T21:05:20.041Z,25.25
2023-04-17T21:07:47.465Z,24.88
2023-04-17T21:10:14.830Z,22.40
2023-04-17T21:12:41.749Z,23.35
2023-04-17T21:15:09.781Z,28.45
2023-04-17T21:17:36.653Z,23.77
2023-04-17T21:20:05.403Z,25.35
2023-04-17T21:22:32.172Z,23.90
2023-04-17T21:24:58.920Z,24.75
2023-04-17T21:27:25.808Z,26.83
2023-04-17T21:29:52.587Z,27.55
2023-04-17T21:32:19.300Z,29.20
2023-04-17T21:34:46.107Z,27.13
2023-04-17T21:37:12.913Z,27.65
2023-04-17T21:39:39.620Z,24.77
2023-04-17T21:42:06.462Z,32.70
2023-04-17T21:44:33.236Z,27.92
2023-04-17T21:46:59.989Z,29.25
2023-04-17T21:49:26.719Z,28.27
2023-04-17T21:51:53.667Z,26.73
2023-04-17T21:54:20.509Z,30.77
2023-04-17T21:56:47.256Z,29.67
2023-04-17T21:59:14.000Z,28.80
2023-04-17T22:01:40.874Z,29.73
2023-04-17T22:04:07.670Z,30.45
2023-04-17T22:06:37.801Z,31.15
2023-04-17T22:09:05.183Z,30.67
2023-04-17T22:11:32.094Z,28.27
2023-04-17T22:13:58.961Z,27.23
2023-04-17T22:16:25.731Z,32.47
2023-04-17T22:18:53.343Z,31.88
2023-04-17T22:21:20.105Z,32.08
2023-04-17T22:23:46.904Z,28.52
2023-04-17T22:26:13.730Z,28.50
2023-04-17T22:28:41.617Z,27.83
2023-04-17T22:31:10.157Z,30.90
2023-04-17T22:33:36.955Z,31.30
2023-04-17T22:36:03.890Z,32.13
2023-04-17T22:38:30.621Z,32.03
2023-04-17T22:40:57.333Z,29.50
2023-04-17T22:43:24.072Z,31.63
2023-04-17T22:45:50.817Z,27.73
2023-04-17T22:48:18.559Z,32.85
2023-04-17T22:50:45.815Z,31.58
2023-04-17T22:53:12.550Z,30.05
2023-04-17T22:55:39.400Z,34.70
2023-04-17T22:58:06.131Z,30.80
2023-04-17T23:00:32.949Z,33.40
2023-04-17T23:02:59.857Z,29.73
2023-04-17T23:05:29.607Z,33.22
2023-04-17T23:07:56.370Z,31.00
2023-04-17T23:10:23.200Z,30.15
2023-04-17T23:12:50.439Z,32.05
2023-04-17T23:15:17.463Z,30.38
2023-04-17T23:17:44.265Z,33.95
2023-04-17T23:20:11.315Z,32.13
2023-04-17T23:22:38.087Z,35.45
2023-04-17T23:25:05.362Z,31.27
2023-04-17T23:27:32.304Z,31.80
2023-04-17T23:29:59.777Z,35.30
2023-04-17T23:32:27.109Z,32.53
2023-04-17T23:34:53.926Z,28.73
2023-04-17T23:37:20.832Z,33.72
2023-04-17T23:39:47.865Z,32.63
2023-04-17T23:42:14.777Z,30.67
2023-04-17T23:44:41.844Z,33.60
2023-04-17T23:47:09.609Z,33.22
2023-04-17T23:49:36.484Z,37.65
2023-04-17T23:52:03.997Z,32.35
2023-04-17T23:54:30.779Z,33.47
2023-04-17T23:56:58.287Z,32.83
2023-04-17T23:59:25.084Z,33.53
